Harmony V — SX8327 — position and weather

sailwx.info

Track history (hours):
 
Tides and Currents Weather Stations Pressure Air Temp Water Temp Dewpoint Dewpoint Depression Visibility Wind Speed Wind Dir Waves Ship Positions

Harmony V

Last reported at 2018-Jun-22 14:58 UTC. Time now 2018-Jun-22 15:13 UTC.
Position N 37°56' E 023°39'.

Length 56 m; draft 3.2 m.

Type: Ship. MMSI: 240937000.

Date/timePositionNaut miles runAvg speedWind from/ knotsBaromVisibWave heightAir tempDewpointWater temp
2018-Jun-22 14:58N 37°56' E 023°39'0 0.0
2018-Jun-22 14:25N 37°56' E 023°39'0 0.0
2018-Jun-22 14:00N 37°56' E 023°39'0 0.0
2018-Jun-22 13:24N 37°56' E 023°39'0 0.0
2018-Jun-22 13:00N 37°56' E 023°39'0 0.0
2018-Jun-22 12:20N 37°56' E 023°39'0 0.0
2018-Jun-22 11:56N 37°56' E 023°39'0 0.0
2018-Jun-22 11:29N 37°56' E 023°39'0 0.0
2018-Jun-22 10:59N 37°56' E 023°39'0 0.0
2018-Jun-22 10:28N 37°56' E 023°39'0 0.0
2018-Jun-22 09:58N 37°56' E 023°39'0 0.0
2018-Jun-22 09:25N 37°56' E 023°39'0 0.0
2018-Jun-22 08:57N 37°56' E 023°39'0 0.0
2018-Jun-22 08:30N 37°56' E 023°39'0 0.0
2018-Jun-22 08:00N 37°56' E 023°39'0 0.0
2018-Jun-22 07:26N 37°56' E 023°39'0 0.0
2018-Jun-22 06:56N 37°56' E 023°39'0 0.0
2018-Jun-22 06:29N 37°56' E 023°39'0 0.0
2018-Jun-22 05:46N 37°56' E 023°39'0 0.0
2018-Jun-22 05:28N 37°56' E 023°39'0 0.0
2018-Jun-22 04:58N 37°56' E 023°39'0 0.0
2018-Jun-22 04:28N 37°56' E 023°39'0 0.0
2018-Jun-22 04:00N 37°56' E 023°39'0 0.0
2018-Jun-22 03:30N 37°56' E 023°39'0 0.0
2018-Jun-22 03:00N 37°56' E 023°39'0 0.0
2018-Jun-22 02:29N 37°56' E 023°39'0 0.0
2018-Jun-22 01:59N 37°56' E 023°39'0 0.0
2018-Jun-22 01:29N 37°56' E 023°39'0 0.0
2018-Jun-22 00:59N 37°56' E 023°39'0 0.0
2018-Jun-22 00:30N 37°56' E 023°39'2 3.8
2018-Jun-22 00:00N 37°54' E 023°39'5 9.6
2018-Jun-21 23:30N 37°50' E 023°37'5 9.3
2018-Jun-21 23:00N 37°45' E 023°36'  
2018-Jun-18 20:04N 35°24' E 024°27'1 9.2
2018-Jun-18 20:01N 35°24' E 024°27'2 4.7
2018-Jun-18 19:30N 35°22' E 024°29'0 0.0
2018-Jun-18 18:59N 35°22' E 024°29'0 0.0
2018-Jun-18 18:29N 35°22' E 024°29'0 0.0
2018-Jun-18 17:59N 35°22' E 024°29'0 0.0
2018-Jun-18 17:28N 35°22' E 024°29'0 0.0
2018-Jun-18 16:58N 35°22' E 024°29'0 0.0
2018-Jun-18 16:28N 35°22' E 024°29'0 0.0
2018-Jun-18 16:00N 35°22' E 024°29'0 0.0
2018-Jun-18 15:30N 35°22' E 024°29'0 0.0
2018-Jun-18 15:00N 35°22' E 024°29'0 0.0
2018-Jun-18 14:30N 35°22' E 024°29'0 0.0
2018-Jun-18 13:59N 35°22' E 024°29'0 0.0
2018-Jun-18 13:29N 35°22' E 024°29'0 0.0
2018-Jun-18 12:59N 35°22' E 024°29'0 0.0
2018-Jun-18 12:28N 35°22' E 024°29'0 0.0
2018-Jun-18 11:58N 35°22' E 024°29'0 0.0
2018-Jun-18 11:25N 35°22' E 024°29'0 0.0
2018-Jun-18 11:00N 35°22' E 024°29'0 0.0
2018-Jun-18 10:30N 35°22' E 024°29'0 0.0
2018-Jun-18 10:00N 35°22' E 024°29'0 0.0
2018-Jun-18 09:30N 35°22' E 024°29'0 0.0
2018-Jun-18 08:59N 35°22' E 024°29'0 0.0
2018-Jun-18 08:29N 35°22' E 024°29'0 0.0
2018-Jun-18 07:59N 35°22' E 024°29'0 0.0
2018-Jun-18 07:28N 35°22' E 024°29'0 0.0
2018-Jun-18 06:58N 35°22' E 024°29'0 0.0
2018-Jun-18 06:28N 35°22' E 024°29'0 0.0
2018-Jun-18 05:58N 35°22' E 024°29'0 0.0
2018-Jun-18 05:30N 35°22' E 024°29'0 0.0
2018-Jun-18 05:00N 35°22' E 024°29'0 0.2
2018-Jun-18 04:30N 35°22' E 024°29'2 3.7
2018-Jun-18 04:00N 35°24' E 024°30'103 4.0
2018-Jun-17 02:10N 36°59' E 025°17'1 6.7
2018-Jun-17 02:00N 37°00' E 025°17'3 6.7
2018-Jun-17 01:30N 37°04' E 025°18'3 6.6
2018-Jun-17 01:00N 37°07' E 025°19'4 7.0
2018-Jun-17 00:29N 37°11' E 025°19'3 7.1
2018-Jun-17 00:00N 37°14' E 025°18'4 7.1
2018-Jun-16 23:30N 37°17' E 025°18'4 7.1
2018-Jun-16 23:00N 37°21' E 025°17'4 7.2
2018-Jun-16 22:30N 37°25' E 025°17'3 5.0
2018-Jun-16 21:55N 37°27' E 025°19'0 0.3
2018-Jun-16 21:09N 37°27' E 025°20'0 0.0
2018-Jun-16 21:00N 37°27' E 025°20'0 0.0
2018-Jun-16 20:21N 37°27' E 025°20'0 0.0
2018-Jun-16 19:48N 37°27' E 025°20'0 0.0
2018-Jun-16 19:30N 37°27' E 025°20'0 0.0
2018-Jun-16 18:59N 37°27' E 025°20'0 0.0
2018-Jun-16 18:26N 37°27' E 025°20'0 0.0
2018-Jun-16 17:59N 37°27' E 025°20'0 0.0
2018-Jun-16 17:25N 37°27' E 025°20'0 0.0
2018-Jun-16 16:59N 37°27' E 025°20'0 0.1
2018-Jun-16 16:29N 37°27' E 025°19'0 0.1
2018-Jun-16 15:53N 37°27' E 025°20'0 0.4
2018-Jun-16 15:30N 37°27' E 025°19'0 0.3
2018-Jun-16 14:58N 37°27' E 025°20'0 0.0
2018-Jun-16 14:30N 37°27' E 025°20'4 8.4
2018-Jun-16 13:59N 37°25' E 025°15'1 1.6
2018-Jun-16 13:30N 37°24' E 025°14'0 0.0
2018-Jun-16 12:57N 37°24' E 025°14'0 0.0
2018-Jun-16 12:30N 37°24' E 025°14'0 0.0
2018-Jun-16 11:59N 37°24' E 025°14'0 0.0
2018-Jun-16 11:23N 37°24' E 025°14'0 0.0
2018-Jun-16 10:59N 37°24' E 025°14'0 0.1
2018-Jun-16 10:28N 37°24' E 025°14'1 1.6
2018-Jun-16 09:55N 37°24' E 025°15'0 0.0
2018-Jun-16 09:28N 37°24' E 025°15'0 0.0
2018-Jun-16 08:58N 37°24' E 025°15'0 0.0
2018-Jun-16 08:30N 37°24' E 025°15'0 0.0
2018-Jun-16 08:00N 37°24' E 025°15'0 0.0
2018-Jun-16 07:28N 37°24' E 025°15'0 0.0
2018-Jun-16 07:00N 37°24' E 025°15'0 0.0
2018-Jun-16 06:30N 37°24' E 025°15'0 0.0
2018-Jun-16 05:58N 37°24' E 025°15'0 0.1
2018-Jun-16 05:30N 37°24' E 025°15'83 5.5
2018-Jun-15 14:38N 37°47' E 023°35'1 7.0
2018-Jun-15 14:30N 37°48' E 023°36'3 6.8
2018-Jun-15 14:00N 37°51' E 023°36'4 7.1
2018-Jun-15 13:30N 37°54' E 023°39'2 3.8
2018-Jun-15 13:00N 37°56' E 023°39'0 0.0
2018-Jun-15 12:30N 37°56' E 023°39'0 0.0
2018-Jun-15 12:00N 37°56' E 023°39'0 0.0
2018-Jun-15 11:24N 37°56' E 023°39'0 0.0
2018-Jun-15 10:57N 37°56' E 023°39'0 0.0
2018-Jun-15 10:29N 37°56' E 023°39'0 0.0
2018-Jun-15 09:59N 37°56' E 023°39'0 0.0
2018-Jun-15 09:29N 37°56' E 023°39'0 0.0
2018-Jun-15 08:58N 37°56' E 023°39'0 0.0
2018-Jun-15 08:28N 37°56' E 023°39'0 0.0
2018-Jun-15 07:55N 37°56' E 023°39'0 0.0
2018-Jun-15 07:30N 37°56' E 023°39'0 0.0
2018-Jun-15 06:57N 37°56' E 023°39'0 0.0
2018-Jun-15 06:24N 37°56' E 023°39'0 0.0
2018-Jun-15 05:59N 37°56' E 023°39'0 0.0
2018-Jun-15 05:29N 37°56' E 023°39'0 0.0
2018-Jun-15 04:56N 37°56' E 023°39'0 0.0
2018-Jun-15 04:28N 37°56' E 023°39'0 0.0
2018-Jun-15 03:58N 37°56' E 023°39'0 0.0
2018-Jun-15 03:28N 37°56' E 023°39'0 0.0
2018-Jun-15 02:58N 37°56' E 023°39'0 0.0
2018-Jun-15 02:30N 37°56' E 023°39'0 0.0
2018-Jun-15 02:00N 37°56' E 023°39'0 0.0
2018-Jun-15 01:27N 37°56' E 023°39'0 0.0
2018-Jun-15 00:56N 37°56' E 023°39'0 0.0
2018-Jun-15 00:29N 37°56' E 023°39'0 0.0
2018-Jun-14 23:59N 37°56' E 023°39'0 0.0
2018-Jun-14 23:22N 37°56' E 023°39'0 0.0
2018-Jun-14 22:34N 37°56' E 023°39'0 0.0
2018-Jun-14 22:25N 37°56' E 023°39'0 0.0
2018-Jun-14 22:01N 37°56' E 023°39'0 0.0
2018-Jun-14 21:30N 37°56' E 023°39'0 0.0
2018-Jun-14 20:57N 37°56' E 023°39'0 0.0
2018-Jun-14 20:23N 37°56' E 023°39'0 0.0
2018-Jun-14 19:55N 37°56' E 023°39'0 0.0
2018-Jun-14 19:22N 37°56' E 023°39'0 0.0
2018-Jun-14 18:58N 37°56' E 023°39'0 0.0
2018-Jun-14 18:27N 37°56' E 023°39'0 0.0
2018-Jun-14 18:00N 37°56' E 023°39'0 0.1
2018-Jun-14 17:30N 37°56' E 023°39'2 3.9
2018-Jun-14 17:00N 37°54' E 023°39'5 9.6
2018-Jun-14 16:31N 37°50' E 023°36'5 9.3
2018-Jun-14 16:00N 37°45' E 023°35'5 9.6
2018-Jun-14 15:30N 37°41' E 023°32'82 2.2
2018-Jun-13 02:39N 37°06' E 025°05'1 8.0
2018-Jun-13 02:30N 37°05' E 025°04'  
Track history (hours):
 
Tides and Currents Weather Stations Pressure Air Temp Water Temp Dewpoint Dewpoint Depression Visibility Wind Speed Wind Dir Waves Ship Positions

Harmony V

Last reported at 2018-Jun-22 14:58 UTC. Time now 2018-Jun-22 15:13 UTC.
Position N 37°56' E 023°39'.

Length 56 m; draft 3.2 m.

Type: Ship. MMSI: 240937000.

Date/timePositionNaut miles runAvg speedWind from/ knotsBaromVisibWave heightAir tempDewpointWater temp
2018-Jun-22 14:58N 37°56' E 023°39'0 0.0
2018-Jun-22 14:25N 37°56' E 023°39'0 0.0
2018-Jun-22 14:00N 37°56' E 023°39'0 0.0
2018-Jun-22 13:24N 37°56' E 023°39'0 0.0
2018-Jun-22 13:00N 37°56' E 023°39'0 0.0
2018-Jun-22 12:20N 37°56' E 023°39'0 0.0
2018-Jun-22 11:56N 37°56' E 023°39'0 0.0
2018-Jun-22 11:29N 37°56' E 023°39'0 0.0
2018-Jun-22 10:59N 37°56' E 023°39'0 0.0
2018-Jun-22 10:28N 37°56' E 023°39'0 0.0
2018-Jun-22 09:58N 37°56' E 023°39'0 0.0
2018-Jun-22 09:25N 37°56' E 023°39'0 0.0
2018-Jun-22 08:57N 37°56' E 023°39'0 0.0
2018-Jun-22 08:30N 37°56' E 023°39'0 0.0
2018-Jun-22 08:00N 37°56' E 023°39'0 0.0
2018-Jun-22 07:26N 37°56' E 023°39'0 0.0
2018-Jun-22 06:56N 37°56' E 023°39'0 0.0
2018-Jun-22 06:29N 37°56' E 023°39'0 0.0
2018-Jun-22 05:46N 37°56' E 023°39'0 0.0
2018-Jun-22 05:28N 37°56' E 023°39'0 0.0
2018-Jun-22 04:58N 37°56' E 023°39'0 0.0
2018-Jun-22 04:28N 37°56' E 023°39'0 0.0
2018-Jun-22 04:00N 37°56' E 023°39'0 0.0
2018-Jun-22 03:30N 37°56' E 023°39'0 0.0
2018-Jun-22 03:00N 37°56' E 023°39'0 0.0
2018-Jun-22 02:29N 37°56' E 023°39'0 0.0
2018-Jun-22 01:59N 37°56' E 023°39'0 0.0
2018-Jun-22 01:29N 37°56' E 023°39'0 0.0
2018-Jun-22 00:59N 37°56' E 023°39'0 0.0
2018-Jun-22 00:30N 37°56' E 023°39'2 3.8
2018-Jun-22 00:00N 37°54' E 023°39'5 9.6
2018-Jun-21 23:30N 37°50' E 023°37'5 9.3
2018-Jun-21 23:00N 37°45' E 023°36'  
2018-Jun-18 20:04N 35°24' E 024°27'1 9.2
2018-Jun-18 20:01N 35°24' E 024°27'2 4.7
2018-Jun-18 19:30N 35°22' E 024°29'0 0.0
2018-Jun-18 18:59N 35°22' E 024°29'0 0.0
2018-Jun-18 18:29N 35°22' E 024°29'0 0.0
2018-Jun-18 17:59N 35°22' E 024°29'0 0.0
2018-Jun-18 17:28N 35°22' E 024°29'0 0.0
2018-Jun-18 16:58N 35°22' E 024°29'0 0.0
2018-Jun-18 16:28N 35°22' E 024°29'0 0.0
2018-Jun-18 16:00N 35°22' E 024°29'0 0.0
2018-Jun-18 15:30N 35°22' E 024°29'0 0.0
2018-Jun-18 15:00N 35°22' E 024°29'0 0.0
2018-Jun-18 14:30N 35°22' E 024°29'0 0.0
2018-Jun-18 13:59N 35°22' E 024°29'0 0.0
2018-Jun-18 13:29N 35°22' E 024°29'0 0.0
2018-Jun-18 12:59N 35°22' E 024°29'0 0.0
2018-Jun-18 12:28N 35°22' E 024°29'0 0.0
2018-Jun-18 11:58N 35°22' E 024°29'0 0.0
2018-Jun-18 11:25N 35°22' E 024°29'0 0.0
2018-Jun-18 11:00N 35°22' E 024°29'0 0.0
2018-Jun-18 10:30N 35°22' E 024°29'0 0.0
2018-Jun-18 10:00N 35°22' E 024°29'0 0.0
2018-Jun-18 09:30N 35°22' E 024°29'0 0.0
2018-Jun-18 08:59N 35°22' E 024°29'0 0.0
2018-Jun-18 08:29N 35°22' E 024°29'0 0.0
2018-Jun-18 07:59N 35°22' E 024°29'0 0.0
2018-Jun-18 07:28N 35°22' E 024°29'0 0.0
2018-Jun-18 06:58N 35°22' E 024°29'0 0.0
2018-Jun-18 06:28N 35°22' E 024°29'0 0.0
2018-Jun-18 05:58N 35°22' E 024°29'0 0.0
2018-Jun-18 05:30N 35°22' E 024°29'0 0.0
2018-Jun-18 05:00N 35°22' E 024°29'0 0.2
2018-Jun-18 04:30N 35°22' E 024°29'2 3.7
2018-Jun-18 04:00N 35°24' E 024°30'103 4.0
2018-Jun-17 02:10N 36°59' E 025°17'1 6.7
2018-Jun-17 02:00N 37°00' E 025°17'3 6.7
2018-Jun-17 01:30N 37°04' E 025°18'3 6.6
2018-Jun-17 01:00N 37°07' E 025°19'4 7.0
2018-Jun-17 00:29N 37°11' E 025°19'3 7.1
2018-Jun-17 00:00N 37°14' E 025°18'4 7.1
2018-Jun-16 23:30N 37°17' E 025°18'4 7.1
2018-Jun-16 23:00N 37°21' E 025°17'4 7.2
2018-Jun-16 22:30N 37°25' E 025°17'3 5.0
2018-Jun-16 21:55N 37°27' E 025°19'0 0.3
2018-Jun-16 21:09N 37°27' E 025°20'0 0.0
2018-Jun-16 21:00N 37°27' E 025°20'0 0.0
2018-Jun-16 20:21N 37°27' E 025°20'0 0.0
2018-Jun-16 19:48N 37°27' E 025°20'0 0.0
2018-Jun-16 19:30N 37°27' E 025°20'0 0.0
2018-Jun-16 18:59N 37°27' E 025°20'0 0.0
2018-Jun-16 18:26N 37°27' E 025°20'0 0.0
2018-Jun-16 17:59N 37°27' E 025°20'0 0.0
2018-Jun-16 17:25N 37°27' E 025°20'0 0.0
2018-Jun-16 16:59N 37°27' E 025°20'0 0.1
2018-Jun-16 16:29N 37°27' E 025°19'0 0.1
2018-Jun-16 15:53N 37°27' E 025°20'0 0.4
2018-Jun-16 15:30N 37°27' E 025°19'0 0.3
2018-Jun-16 14:58N 37°27' E 025°20'0 0.0
2018-Jun-16 14:30N 37°27' E 025°20'4 8.4
2018-Jun-16 13:59N 37°25' E 025°15'1 1.6
2018-Jun-16 13:30N 37°24' E 025°14'0 0.0
2018-Jun-16 12:57N 37°24' E 025°14'0 0.0
2018-Jun-16 12:30N 37°24' E 025°14'0 0.0
2018-Jun-16 11:59N 37°24' E 025°14'0 0.0
2018-Jun-16 11:23N 37°24' E 025°14'0 0.0
2018-Jun-16 10:59N 37°24' E 025°14'0 0.1
2018-Jun-16 10:28N 37°24' E 025°14'1 1.6
2018-Jun-16 09:55N 37°24' E 025°15'0 0.0
2018-Jun-16 09:28N 37°24' E 025°15'0 0.0
2018-Jun-16 08:58N 37°24' E 025°15'0 0.0
2018-Jun-16 08:30N 37°24' E 025°15'0 0.0
2018-Jun-16 08:00N 37°24' E 025°15'0 0.0
2018-Jun-16 07:28N 37°24' E 025°15'0 0.0
2018-Jun-16 07:00N 37°24' E 025°15'0 0.0
2018-Jun-16 06:30N 37°24' E 025°15'0 0.0
2018-Jun-16 05:58N 37°24' E 025°15'0 0.1
2018-Jun-16 05:30N 37°24' E 025°15'83 5.5
2018-Jun-15 14:38N 37°47' E 023°35'1 7.0
2018-Jun-15 14:30N 37°48' E 023°36'3 6.8
2018-Jun-15 14:00N 37°51' E 023°36'4 7.1
2018-Jun-15 13:30N 37°54' E 023°39'2 3.8
2018-Jun-15 13:00N 37°56' E 023°39'0 0.0
2018-Jun-15 12:30N 37°56' E 023°39'0 0.0
2018-Jun-15 12:00N 37°56' E 023°39'0 0.0
2018-Jun-15 11:24N 37°56' E 023°39'0 0.0
2018-Jun-15 10:57N 37°56' E 023°39'0 0.0
2018-Jun-15 10:29N 37°56' E 023°39'0 0.0
2018-Jun-15 09:59N 37°56' E 023°39'0 0.0
2018-Jun-15 09:29N 37°56' E 023°39'0 0.0
2018-Jun-15 08:58N 37°56' E 023°39'0 0.0
2018-Jun-15 08:28N 37°56' E 023°39'0 0.0
2018-Jun-15 07:55N 37°56' E 023°39'0 0.0
2018-Jun-15 07:30N 37°56' E 023°39'0 0.0
2018-Jun-15 06:57N 37°56' E 023°39'0 0.0
2018-Jun-15 06:24N 37°56' E 023°39'0 0.0
2018-Jun-15 05:59N 37°56' E 023°39'0 0.0
2018-Jun-15 05:29N 37°56' E 023°39'0 0.0
2018-Jun-15 04:56N 37°56' E 023°39'0 0.0
2018-Jun-15 04:28N 37°56' E 023°39'0 0.0
2018-Jun-15 03:58N 37°56' E 023°39'0 0.0
2018-Jun-15 03:28N 37°56' E 023°39'0 0.0
2018-Jun-15 02:58N 37°56' E 023°39'0 0.0
2018-Jun-15 02:30N 37°56' E 023°39'0 0.0
2018-Jun-15 02:00N 37°56' E 023°39'0 0.0
2018-Jun-15 01:27N 37°56' E 023°39'0 0.0
2018-Jun-15 00:56N 37°56' E 023°39'0 0.0
2018-Jun-15 00:29N 37°56' E 023°39'0 0.0
2018-Jun-14 23:59N 37°56' E 023°39'0 0.0
2018-Jun-14 23:22N 37°56' E 023°39'0 0.0
2018-Jun-14 22:34N 37°56' E 023°39'0 0.0
2018-Jun-14 22:25N 37°56' E 023°39'0 0.0
2018-Jun-14 22:01N 37°56' E 023°39'0 0.0
2018-Jun-14 21:30N 37°56' E 023°39'0 0.0
2018-Jun-14 20:57N 37°56' E 023°39'0 0.0
2018-Jun-14 20:23N 37°56' E 023°39'0 0.0
2018-Jun-14 19:55N 37°56' E 023°39'0 0.0
2018-Jun-14 19:22N 37°56' E 023°39'0 0.0
2018-Jun-14 18:58N 37°56' E 023°39'0 0.0
2018-Jun-14 18:27N 37°56' E 023°39'0 0.0
2018-Jun-14 18:00N 37°56' E 023°39'0 0.1
2018-Jun-14 17:30N 37°56' E 023°39'2 3.9
2018-Jun-14 17:00N 37°54' E 023°39'5 9.6
2018-Jun-14 16:31N 37°50' E 023°36'5 9.3
2018-Jun-14 16:00N 37°45' E 023°35'5 9.6
2018-Jun-14 15:30N 37°41' E 023°32'82 2.2
2018-Jun-13 02:39N 37°06' E 025°05'1 8.0
2018-Jun-13 02:30N 37°05' E 025°04'  

Dump ship's entire track history